sensor_id;sensor_type;location;lat;lon;timestamp;pressure;altitude;pressure_sealevel;temperature;humidity
5812;BME280;2932;52.400;9.558;2023-02-18T00:01:39;101269.69;;;9.76;65.47
5812;BME280;2932;52.400;9.558;2023-02-18T00:04:04;101284.66;;;9.83;65.55
5812;BME280;2932;52.400;9.558;2023-02-18T00:06:32;101288.06;;;9.89;65.58
5812;BME280;2932;52.400;9.558;2023-02-18T00:08:59;101289.22;;;9.88;65.74
5812;BME280;2932;52.400;9.558;2023-02-18T00:11:27;101280.94;;;9.96;65.66
5812;BME280;2932;52.400;9.558;2023-02-18T00:13:55;101281.38;;;10.07;65.23
5812;BME280;2932;52.400;9.558;2023-02-18T00:16:21;101289.84;;;10.11;65.30
5812;BME280;2932;52.400;9.558;2023-02-18T00:18:47;101285.16;;;9.85;65.84
5812;BME280;2932;52.400;9.558;2023-02-18T00:21:12;101276.06;;;9.93;65.71
5812;BME280;2932;52.400;9.558;2023-02-18T00:23:38;101285.63;;;10.13;65.50
5812;BME280;2932;52.400;9.558;2023-02-18T00:26:07;101276.88;;;9.94;65.54
5812;BME280;2932;52.400;9.558;2023-02-18T00:28:33;101276.22;;;9.88;66.20
5812;BME280;2932;52.400;9.558;2023-02-18T00:30:58;101280.59;;;9.98;66.11
5812;BME280;2932;52.400;9.558;2023-02-18T00:33:24;101281.88;;;10.09;65.75
5812;BME280;2932;52.400;9.558;2023-02-18T00:35:49;101273.59;;;9.92;66.24
5812;BME280;2932;52.400;9.558;2023-02-18T00:38:15;101284.16;;;10.07;66.05
5812;BME280;2932;52.400;9.558;2023-02-18T00:40:40;101278.63;;;10.07;66.03
5812;BME280;2932;52.400;9.558;2023-02-18T00:43:06;101269.88;;;9.88;66.38
5812;BME280;2932;52.400;9.558;2023-02-18T00:45:32;101280.94;;;9.96;66.50
5812;BME280;2932;52.400;9.558;2023-02-18T00:47:57;101275.72;;;9.86;66.80
5812;BME280;2932;52.400;9.558;2023-02-18T00:50:22;101283.38;;;9.98;66.47
5812;BME280;2932;52.400;9.558;2023-02-18T00:52:48;101280.75;;;9.93;66.58
5812;BME280;2932;52.400;9.558;2023-02-18T00:55:13;101274.72;;;10.08;66.35
5812;BME280;2932;52.400;9.558;2023-02-18T00:57:38;101270.50;;;10.02;67.14
5812;BME280;2932;52.400;9.558;2023-02-18T01:00:05;101272.97;;;9.86;66.79
5812;BME280;2932;52.400;9.558;2023-02-18T01:02:31;101282.06;;;9.87;66.72
5812;BME280;2932;52.400;9.558;2023-02-18T01:04:57;101277.66;;;9.68;67.19
5812;BME280;2932;52.400;9.558;2023-02-18T01:07:22;101278.81;;;9.93;67.06
5812;BME280;2932;52.400;9.558;2023-02-18T01:09:51;101283.19;;;9.94;66.89
5812;BME280;2932;52.400;9.558;2023-02-18T01:12:16;101285.63;;;9.79;67.28
5812;BME280;2932;52.400;9.558;2023-02-18T01:14:42;101292.47;;;9.98;67.02
5812;BME280;2932;52.400;9.558;2023-02-18T01:17:07;101297.00;;;9.77;67.22
5812;BME280;2932;52.400;9.558;2023-02-18T01:19:32;101290.03;;;9.80;67.23
5812;BME280;2932;52.400;9.558;2023-02-18T01:21:58;101275.41;;;9.96;66.92
5812;BME280;2932;52.400;9.558;2023-02-18T01:24:23;101273.13;;;9.98;66.58
5812;BME280;2932;52.400;9.558;2023-02-18T01:26:48;101279.13;;;9.83;67.35
5812;BME280;2932;52.400;9.558;2023-02-18T01:29:14;101290.34;;;9.87;67.38
5812;BME280;2932;52.400;9.558;2023-02-18T01:31:39;101288.72;;;9.94;67.44
5812;BME280;2932;52.400;9.558;2023-02-18T01:34:04;101276.69;;;9.90;67.34
5812;BME280;2932;52.400;9.558;2023-02-18T01:36:29;101264.31;;;10.05;67.31
5812;BME280;2932;52.400;9.558;2023-02-18T01:38:55;101268.06;;;10.00;67.36
5812;BME280;2932;52.400;9.558;2023-02-18T01:41:20;101255.38;;;9.74;67.92
5812;BME280;2932;52.400;9.558;2023-02-18T01:43:46;101262.22;;;9.76;68.12
5812;BME280;2932;52.400;9.558;2023-02-18T01:46:20;101258.00;;;9.87;67.86
5812;BME280;2932;52.400;9.558;2023-02-18T01:48:59;101265.00;;;9.85;68.04
5812;BME280;2932;52.400;9.558;2023-02-18T01:51:36;101258.00;;;9.79;68.41
5812;BME280;2932;52.400;9.558;2023-02-18T01:56:35;101260.25;;;10.02;67.69
5812;BME280;2932;52.400;9.558;2023-02-18T01:59:07;101252.47;;;9.96;67.75
5812;BME280;2932;52.400;9.558;2023-02-18T02:01:34;101259.28;;;10.07;67.73
5812;BME280;2932;52.400;9.558;2023-02-18T02:04:00;101250.03;;;10.20;67.87
5812;BME280;2932;52.400;9.558;2023-02-18T02:06:26;101239.09;;;10.15;67.83
5812;BME280;2932;52.400;9.558;2023-02-18T02:08:55;101242.03;;;10.19;68.24
5812;BME280;2932;52.400;9.558;2023-02-18T02:17:04;101230.81;;;10.15;68.47
5812;BME280;2932;52.400;9.558;2023-02-18T02:36:05;101227.06;;;10.11;69.41
5812;BME280;2932;52.400;9.558;2023-02-18T02:38:43;101230.31;;;10.13;69.72
5812;BME280;2932;52.400;9.558;2023-02-18T02:41:34;101225.94;;;10.29;69.65
5812;BME280;2932;52.400;9.558;2023-02-18T02:44:20;101220.41;;;10.21;69.79
5812;BME280;2932;52.400;9.558;2023-02-18T02:46:49;101217.00;;;10.24;70.18
5812;BME280;2932;52.400;9.558;2023-02-18T02:49:41;101217.16;;;10.27;70.40
5812;BME280;2932;52.400;9.558;2023-02-18T02:52:14;101197.78;;;10.36;70.20
5812;BME280;2932;52.400;9.558;2023-02-18T02:54:41;101206.72;;;10.16;70.80
5812;BME280;2932;52.400;9.558;2023-02-18T02:59:43;101201.38;;;10.19;71.13
5812;BME280;2932;52.400;9.558;2023-02-18T03:11:03;101187.03;;;10.34;71.96
5812;BME280;2932;52.400;9.558;2023-02-18T03:16:26;101178.84;;;10.47;73.32
5812;BME280;2932;52.400;9.558;2023-02-18T03:19:12;101171.44;;;10.68;72.57
5812;BME280;2932;52.400;9.558;2023-02-18T03:21:44;101170.34;;;10.81;72.58
5812;BME280;2932;52.400;9.558;2023-02-18T03:26:39;101170.09;;;10.74;72.74
5812;BME280;2932;52.400;9.558;2023-02-18T03:29:07;101166.63;;;11.07;72.64
5812;BME280;2932;52.400;9.558;2023-02-18T03:31:36;101160.44;;;10.80;73.16
5812;BME280;2932;52.400;9.558;2023-02-18T03:34:15;101157.25;;;10.69;74.20
5812;BME280;2932;52.400;9.558;2023-02-18T03:36:42;101155.72;;;10.81;74.45
5812;BME280;2932;52.400;9.558;2023-02-18T03:39:13;101151.44;;;10.62;75.42
5812;BME280;2932;52.400;9.558;2023-02-18T03:41:39;101143.31;;;10.57;76.34
5812;BME280;2932;52.400;9.558;2023-02-18T03:44:06;101145.53;;;10.73;77.21
5812;BME280;2932;52.400;9.558;2023-02-18T03:46:33;101152.34;;;10.75;77.32
5812;BME280;2932;52.400;9.558;2023-02-18T03:48:59;101141.50;;;10.61;77.78
5812;BME280;2932;52.400;9.558;2023-02-18T03:51:25;101142.31;;;10.62;78.41
5812;BME280;2932;52.400;9.558;2023-02-18T03:53:50;101133.34;;;10.65;78.87
5812;BME280;2932;52.400;9.558;2023-02-18T03:56:16;101134.13;;;10.74;78.93
5812;BME280;2932;52.400;9.558;2023-02-18T03:58:42;101136.31;;;10.60;79.67
5812;BME280;2932;52.400;9.558;2023-02-18T04:01:08;101130.97;;;10.55;80.98
5812;BME280;2932;52.400;9.558;2023-02-18T04:03:33;101121.72;;;10.42;80.79
5812;BME280;2932;52.400;9.558;2023-02-18T04:05:58;101129.22;;;11.00;80.01
5812;BME280;2932;52.400;9.558;2023-02-18T04:08:24;101121.81;;;10.63;80.01
5812;BME280;2932;52.400;9.558;2023-02-18T04:10:49;101130.78;;;10.81;79.63
5812;BME280;2932;52.400;9.558;2023-02-18T04:13:15;101126.72;;;11.08;78.72
5812;BME280;2932;52.400;9.558;2023-02-18T04:15:44;101117.00;;;11.01;78.18
5812;BME280;2932;52.400;9.558;2023-02-18T04:18:10;101120.56;;;11.02;78.30
5812;BME280;2932;52.400;9.558;2023-02-18T04:20:36;101124.56;;;11.13;78.17
5812;BME280;2932;52.400;9.558;2023-02-18T04:23:02;101118.75;;;11.27;78.25
5812;BME280;2932;52.400;9.558;2023-02-18T04:25:28;101121.28;;;11.53;77.82
5812;BME280;2932;52.400;9.558;2023-02-18T04:27:53;101113.34;;;11.30;78.34
5812;BME280;2932;52.400;9.558;2023-02-18T04:30:19;101112.53;;;11.63;78.24
5812;BME280;2932;52.400;9.558;2023-02-18T04:32:45;101113.81;;;11.65;77.89
5812;BME280;2932;52.400;9.558;2023-02-18T04:35:10;101108.13;;;11.83;77.68
5812;BME280;2932;52.400;9.558;2023-02-18T04:37:35;101107.00;;;11.84;77.50
5812;BME280;2932;52.400;9.558;2023-02-18T04:40:00;101112.25;;;12.22;77.08
5812;BME280;2932;52.400;9.558;2023-02-18T04:42:26;101099.38;;;12.05;77.69
5812;BME280;2932;52.400;9.558;2023-02-18T04:44:51;101090.75;;;12.19;77.09
5812;BME280;2932;52.400;9.558;2023-02-18T04:47:16;101090.84;;;12.10;77.05
5812;BME280;2932;52.400;9.558;2023-02-18T04:49:42;101080.56;;;12.11;76.71
5812;BME280;2932;52.400;9.558;2023-02-18T04:52:07;101077.44;;;12.12;76.91
5812;BME280;2932;52.400;9.558;2023-02-18T04:54:32;101071.19;;;12.03;77.41
5812;BME280;2932;52.400;9.558;2023-02-18T04:56:58;101075.94;;;12.15;77.06
5812;BME280;2932;52.400;9.558;2023-02-18T04:59:23;101066.47;;;12.28;76.85
5812;BME280;2932;52.400;9.558;2023-02-18T05:01:49;101073.06;;;12.11;76.98
5812;BME280;2932;52.400;9.558;2023-02-18T05:04:14;101068.69;;;12.34;76.72
5812;BME280;2932;52.400;9.558;2023-02-18T05:06:41;101066.84;;;12.26;76.94
5812;BME280;2932;52.400;9.558;2023-02-18T05:09:07;101058.28;;;12.31;77.05
5812;BME280;2932;52.400;9.558;2023-02-18T05:11:33;101049.97;;;12.31;76.92
5812;BME280;2932;52.400;9.558;2023-02-18T05:13:58;101050.16;;;12.02;76.90
5812;BME280;2932;52.400;9.558;2023-02-18T05:16:23;101044.31;;;11.70;78.66
5812;BME280;2932;52.400;9.558;2023-02-18T05:18:48;101043.94;;;11.93;78.94
5812;BME280;2932;52.400;9.558;2023-02-18T05:21:14;101044.97;;;12.00;78.72
5812;BME280;2932;52.400;9.558;2023-02-18T05:23:39;101038.69;;;11.79;79.34
5812;BME280;2932;52.400;9.558;2023-02-18T05:26:04;101032.75;;;11.68;79.63
5812;BME280;2932;52.400;9.558;2023-02-18T05:28:30;101029.84;;;11.53;81.00
5812;BME280;2932;52.400;9.558;2023-02-18T05:30:56;101025.72;;;11.59;81.40
5812;BME280;2932;52.400;9.558;2023-02-18T05:33:21;101024.44;;;11.68;81.10
5812;BME280;2932;52.400;9.558;2023-02-18T05:35:47;101025.00;;;11.62;81.56
5812;BME280;2932;52.400;9.558;2023-02-18T05:38:13;101011.47;;;11.48;82.29
5812;BME280;2932;52.400;9.558;2023-02-18T05:40:38;101007.44;;;11.46;82.57
5812;BME280;2932;52.400;9.558;2023-02-18T05:43:03;101001.56;;;11.47;83.43
5812;BME280;2932;52.400;9.558;2023-02-18T05:45:29;100995.88;;;11.44;83.30
5812;BME280;2932;52.400;9.558;2023-02-18T05:47:54;100991.78;;;11.29;84.16
5812;BME280;2932;52.400;9.558;2023-02-18T05:50:20;100986.28;;;11.41;84.45
5812;BME280;2932;52.400;9.558;2023-02-18T05:52:45;100991.03;;;11.41;84.86
5812;BME280;2932;52.400;9.558;2023-02-18T05:55:10;100984.56;;;11.03;86.28
5812;BME280;2932;52.400;9.558;2023-02-18T05:57:36;100977.00;;;11.25;85.97
5812;BME280;2932;52.400;9.558;2023-02-18T06:00:02;100970.44;;;11.17;86.49
5812;BME280;2932;52.400;9.558;2023-02-18T06:02:28;100967.41;;;11.22;86.20
5812;BME280;2932;52.400;9.558;2023-02-18T06:04:53;100956.94;;;10.95;87.86
5812;BME280;2932;52.400;9.558;2023-02-18T06:07:18;100955.78;;;11.29;87.06
5812;BME280;2932;52.400;9.558;2023-02-18T06:09:45;100953.47;;;11.31;86.91
5812;BME280;2932;52.400;9.558;2023-02-18T06:12:10;100939.44;;;11.48;86.23
5812;BME280;2932;52.400;9.558;2023-02-18T06:14:35;100940.78;;;11.30;86.74
5812;BME280;2932;52.400;9.558;2023-02-18T06:17:00;100928.03;;;11.05;87.44
5812;BME280;2932;52.400;9.558;2023-02-18T06:19:26;100926.59;;;11.31;87.03
5812;BME280;2932;52.400;9.558;2023-02-18T06:21:51;100918.66;;;11.66;86.20
5812;BME280;2932;52.400;9.558;2023-02-18T06:24:16;100909.19;;;11.43;86.52
5812;BME280;2932;52.400;9.558;2023-02-18T06:26:42;100909.41;;;11.62;86.05
5812;BME280;2932;52.400;9.558;2023-02-18T06:29:07;100900.03;;;12.16;84.81
5812;BME280;2932;52.400;9.558;2023-02-18T06:31:32;100891.34;;;12.29;83.70
5812;BME280;2932;52.400;9.558;2023-02-18T06:33:58;100888.28;;;12.07;83.27
5812;BME280;2932;52.400;9.558;2023-02-18T06:36:23;100882.41;;;11.72;85.13
5812;BME280;2932;52.400;9.558;2023-02-18T06:38:48;100873.88;;;11.77;85.00
5812;BME280;2932;52.400;9.558;2023-02-18T06:41:14;100881.16;;;11.81;85.28
5812;BME280;2932;52.400;9.558;2023-02-18T06:43:40;100878.47;;;11.73;85.01
5812;BME280;2932;52.400;9.558;2023-02-18T06:46:06;100874.91;;;11.84;85.09
5812;BME280;2932;52.400;9.558;2023-02-18T06:48:32;100871.31;;;11.96;84.88
5812;BME280;2932;52.400;9.558;2023-02-18T06:50:57;100860.69;;;11.74;85.31
5812;BME280;2932;52.400;9.558;2023-02-18T06:53:23;100863.81;;;11.96;85.29
5812;BME280;2932;52.400;9.558;2023-02-18T06:55:48;100852.97;;;11.79;85.86
5812;BME280;2932;52.400;9.558;2023-02-18T06:58:14;100842.72;;;12.20;84.90
5812;BME280;2932;52.400;9.558;2023-02-18T07:00:39;100842.31;;;12.33;84.03
5812;BME280;2932;52.400;9.558;2023-02-18T07:03:05;100839.09;;;12.31;84.16
5812;BME280;2932;52.400;9.558;2023-02-18T07:05:30;100835.66;;;12.50;83.88
5812;BME280;2932;52.400;9.558;2023-02-18T07:07:56;100837.88;;;12.45;83.82
5812;BME280;2932;52.400;9.558;2023-02-18T07:10:22;100830.75;;;12.59;82.97
5812;BME280;2932;52.400;9.558;2023-02-18T07:12:47;100823.09;;;12.84;82.01
5812;BME280;2932;52.400;9.558;2023-02-18T07:15:13;100819.19;;;12.57;82.58
5812;BME280;2932;52.400;9.558;2023-02-18T07:17:39;100820.72;;;12.55;83.14
5812;BME280;2932;52.400;9.558;2023-02-18T07:20:05;100812.50;;;12.58;82.67
5812;BME280;2932;52.400;9.558;2023-02-18T07:22:31;100802.94;;;12.72;82.96
5812;BME280;2932;52.400;9.558;2023-02-18T07:24:56;100798.00;;;12.65;82.88
5812;BME280;2932;52.400;9.558;2023-02-18T07:27:21;100785.44;;;12.55;82.97
5812;BME280;2932;52.400;9.558;2023-02-18T07:29:47;100781.06;;;12.54;83.34
5812;BME280;2932;52.400;9.558;2023-02-18T07:32:14;100774.28;;;12.83;82.81
5812;BME280;2932;52.400;9.558;2023-02-18T07:34:40;100779.56;;;13.04;82.38
5812;BME280;2932;52.400;9.558;2023-02-18T07:37:05;100775.78;;;12.65;83.30
5812;BME280;2932;52.400;9.558;2023-02-18T07:39:42;100774.50;;;12.47;84.82
5812;BME280;2932;52.400;9.558;2023-02-18T07:42:11;100759.31;;;12.72;84.88
5812;BME280;2932;52.400;9.558;2023-02-18T07:44:38;100753.88;;;12.76;85.00
5812;BME280;2932;52.400;9.558;2023-02-18T07:47:05;100756.09;;;12.70;85.86
5812;BME280;2932;52.400;9.558;2023-02-18T07:49:32;100752.84;;;12.52;86.47
5812;BME280;2932;52.400;9.558;2023-02-18T07:51:57;100747.03;;;12.57;86.12
5812;BME280;2932;52.400;9.558;2023-02-18T07:54:22;100738.97;;;12.37;87.65
5812;BME280;2932;52.400;9.558;2023-02-18T07:56:48;100748.38;;;12.63;87.75
5812;BME280;2932;52.400;9.558;2023-02-18T07:59:13;100744.06;;;12.50;88.10
5812;BME280;2932;52.400;9.558;2023-02-18T08:01:40;100738.06;;;12.32;88.79
5812;BME280;2932;52.400;9.558;2023-02-18T08:04:05;100733.16;;;12.57;88.10
5812;BME280;2932;52.400;9.558;2023-02-18T08:06:39;100739.06;;;12.56;88.28
5812;BME280;2932;52.400;9.558;2023-02-18T08:09:05;100725.63;;;12.58;88.46
5812;BME280;2932;52.400;9.558;2023-02-18T08:11:32;100732.47;;;12.76;88.30
5812;BME280;2932;52.400;9.558;2023-02-18T08:13:57;100735.03;;;12.38;89.47
5812;BME280;2932;52.400;9.558;2023-02-18T08:16:23;100730.41;;;12.73;88.98
5812;BME280;2932;52.400;9.558;2023-02-18T08:18:49;100724.75;;;12.38;89.39
5812;BME280;2932;52.400;9.558;2023-02-18T08:21:16;100719.81;;;12.47;89.63
5812;BME280;2932;52.400;9.558;2023-02-18T08:23:42;100718.91;;;12.43;89.65
5812;BME280;2932;52.400;9.558;2023-02-18T08:26:08;100717.59;;;12.68;88.70
5812;BME280;2932;52.400;9.558;2023-02-18T08:28:33;100713.28;;;12.55;88.64
5812;BME280;2932;52.400;9.558;2023-02-18T08:30:59;100707.28;;;12.69;88.34
5812;BME280;2932;52.400;9.558;2023-02-18T08:33:25;100671.91;;;12.50;88.36
5812;BME280;2932;52.400;9.558;2023-02-18T08:35:52;100705.75;;;12.40;89.29
5812;BME280;2932;52.400;9.558;2023-02-18T08:38:18;100690.69;;;12.41;89.74
5812;BME280;2932;52.400;9.558;2023-02-18T08:40:43;100696.56;;;12.67;89.31
5812;BME280;2932;52.400;9.558;2023-02-18T08:43:09;100697.69;;;12.51;88.70
5812;BME280;2932;52.400;9.558;2023-02-18T08:45:36;100693.13;;;12.43;89.48
5812;BME280;2932;52.400;9.558;2023-02-18T08:48:03;100688.13;;;12.48;89.44
5812;BME280;2932;52.400;9.558;2023-02-18T08:50:28;100688.56;;;12.50;89.51
5812;BME280;2932;52.400;9.558;2023-02-18T08:52:55;100684.34;;;12.41;89.71
5812;BME280;2932;52.400;9.558;2023-02-18T08:55:20;100676.41;;;12.55;90.06
5812;BME280;2932;52.400;9.558;2023-02-18T08:57:47;100686.00;;;12.73;89.35
5812;BME280;2932;52.400;9.558;2023-02-18T09:00:14;100679.72;;;12.60;88.94
5812;BME280;2932;52.400;9.558;2023-02-18T09:02:39;100681.69;;;12.60;88.79
5812;BME280;2932;52.400;9.558;2023-02-18T09:05:05;100665.94;;;12.64;87.61
5812;BME280;2932;52.400;9.558;2023-02-18T09:07:30;100679.28;;;12.74;87.06
5812;BME280;2932;52.400;9.558;2023-02-18T09:09:56;100672.72;;;12.51;87.89
5812;BME280;2932;52.400;9.558;2023-02-18T09:12:21;100654.16;;;12.86;87.27
5812;BME280;2932;52.400;9.558;2023-02-18T09:14:47;100648.72;;;12.58;87.11
5812;BME280;2932;52.400;9.558;2023-02-18T09:17:12;100655.91;;;12.59;87.23
5812;BME280;2932;52.400;9.558;2023-02-18T09:19:38;100652.53;;;12.85;86.35
5812;BME280;2932;52.400;9.558;2023-02-18T09:22:03;100638.44;;;12.59;87.08
5812;BME280;2932;52.400;9.558;2023-02-18T09:24:29;100649.09;;;12.73;86.72
5812;BME280;2932;52.400;9.558;2023-02-18T09:26:54;100655.59;;;12.96;86.10
5812;BME280;2932;52.400;9.558;2023-02-18T09:29:20;100656.56;;;12.88;86.33
5812;BME280;2932;52.400;9.558;2023-02-18T09:31:45;100646.22;;;12.69;86.56
5812;BME280;2932;52.400;9.558;2023-02-18T09:34:11;100657.50;;;12.76;86.16
5812;BME280;2932;52.400;9.558;2023-02-18T09:36:37;100641.97;;;12.91;85.81
5812;BME280;2932;52.400;9.558;2023-02-18T09:39:04;100644.94;;;12.82;86.66
5812;BME280;2932;52.400;9.558;2023-02-18T09:41:45;100659.00;;;12.89;86.50
5812;BME280;2932;52.400;9.558;2023-02-18T09:44:24;100639.97;;;12.72;87.39
5812;BME280;2932;52.400;9.558;2023-02-18T09:46:58;100636.28;;;12.52;89.25
5812;BME280;2932;52.400;9.558;2023-02-18T09:49:27;100645.59;;;12.44;89.33
5812;BME280;2932;52.400;9.558;2023-02-18T09:51:54;100634.41;;;12.41;89.42
5812;BME280;2932;52.400;9.558;2023-02-18T09:54:20;100638.97;;;12.49;88.76
5812;BME280;2932;52.400;9.558;2023-02-18T09:56:47;100649.72;;;12.66;88.01
5812;BME280;2932;52.400;9.558;2023-02-18T09:59:20;100636.97;;;12.81;87.72
5812;BME280;2932;52.400;9.558;2023-02-18T10:01:48;100632.34;;;12.53;88.04
5812;BME280;2932;52.400;9.558;2023-02-18T10:04:22;100639.16;;;12.40;88.68
5812;BME280;2932;52.400;9.558;2023-02-18T10:06:51;100619.91;;;12.63;88.35
5812;BME280;2932;52.400;9.558;2023-02-18T10:09:27;100625.81;;;12.46;88.89
5812;BME280;2932;52.400;9.558;2023-02-18T10:12:03;100641.41;;;12.34;89.39
5812;BME280;2932;52.400;9.558;2023-02-18T10:14:32;100630.66;;;12.49;89.61
5812;BME280;2932;52.400;9.558;2023-02-18T10:17:00;100628.22;;;12.63;89.36
5812;BME280;2932;52.400;9.558;2023-02-18T10:19:32;100626.78;;;12.69;89.64
5812;BME280;2932;52.400;9.558;2023-02-18T10:22:00;100627.25;;;12.40;90.54
5812;BME280;2932;52.400;9.558;2023-02-18T10:24:39;100644.06;;;12.47;90.35
5812;BME280;2932;52.400;9.558;2023-02-18T10:27:08;100646.25;;;12.38;91.52
5812;BME280;2932;52.400;9.558;2023-02-18T10:29:34;100619.47;;;12.29;91.89
5812;BME280;2932;52.400;9.558;2023-02-18T10:32:24;100638.16;;;12.48;91.05
5812;BME280;2932;52.400;9.558;2023-02-18T10:34:56;100630.19;;;12.47;91.44
5812;BME280;2932;52.400;9.558;2023-02-18T10:42:48;100626.38;;;12.35;90.66
5812;BME280;2932;52.400;9.558;2023-02-18T10:48:10;100620.16;;;12.42;89.48
5812;BME280;2932;52.400;9.558;2023-02-18T10:50:39;100622.84;;;12.54;89.50
5812;BME280;2932;52.400;9.558;2023-02-18T10:53:37;100616.59;;;12.73;88.22
5812;BME280;2932;52.400;9.558;2023-02-18T10:56:04;100611.22;;;12.64;87.55
5812;BME280;2932;52.400;9.558;2023-02-18T10:58:45;100610.31;;;12.60;87.41
5812;BME280;2932;52.400;9.558;2023-02-18T11:01:16;100605.47;;;12.73;86.63
5812;BME280;2932;52.400;9.558;2023-02-18T11:03:47;100608.16;;;12.69;86.22
5812;BME280;2932;52.400;9.558;2023-02-18T11:06:20;100628.75;;;12.68;86.07
5812;BME280;2932;52.400;9.558;2023-02-18T11:08:46;100630.00;;;12.71;86.03
5812;BME280;2932;52.400;9.558;2023-02-18T11:11:20;100611.38;;;12.72;86.99
5812;BME280;2932;52.400;9.558;2023-02-18T11:13:59;100620.88;;;12.71;86.96
5812;BME280;2932;52.400;9.558;2023-02-18T11:16:37;100612.22;;;12.41;88.36
5812;BME280;2932;52.400;9.558;2023-02-18T11:19:03;100613.56;;;12.31;88.88
5812;BME280;2932;52.400;9.558;2023-02-18T11:21:33;100614.38;;;12.31;89.10
5812;BME280;2932;52.400;9.558;2023-02-18T11:24:08;100619.28;;;12.22;89.43
5812;BME280;2932;52.400;9.558;2023-02-18T11:26:35;100615.59;;;12.50;89.04
5812;BME280;2932;52.400;9.558;2023-02-18T11:29:23;100604.97;;;12.36;89.56
5812;BME280;2932;52.400;9.558;2023-02-18T11:31:55;100619.38;;;12.26;89.84
5812;BME280;2932;52.400;9.558;2023-02-18T11:34:30;100616.22;;;12.59;89.02
5812;BME280;2932;52.400;9.558;2023-02-18T11:37:08;100599.75;;;12.50;89.07
5812;BME280;2932;52.400;9.558;2023-02-18T11:39:34;100590.28;;;12.04;89.79
5812;BME280;2932;52.400;9.558;2023-02-18T11:42:03;100610.63;;;12.24;89.86
5812;BME280;2932;52.400;9.558;2023-02-18T11:44:36;100620.78;;;12.04;90.44
5812;BME280;2932;52.400;9.558;2023-02-18T11:47:16;100634.22;;;12.18;90.01
5812;BME280;2932;52.400;9.558;2023-02-18T11:50:05;100645.44;;;12.37;89.17
5812;BME280;2932;52.400;9.558;2023-02-18T11:52:41;100612.59;;;12.23;89.96
5812;BME280;2932;52.400;9.558;2023-02-18T11:57:38;100615.53;;;12.30;89.15
5812;BME280;2932;52.400;9.558;2023-02-18T12:02:46;100609.88;;;11.95;89.47
5812;BME280;2932;52.400;9.558;2023-02-18T12:05:20;100614.34;;;12.00;88.42
5812;BME280;2932;52.400;9.558;2023-02-18T12:07:49;100606.22;;;11.91;88.72
5812;BME280;2932;52.400;9.558;2023-02-18T12:10:26;100606.56;;;12.06;88.11
5812;BME280;2932;52.400;9.558;2023-02-18T12:13:00;100611.50;;;12.12;87.60
5812;BME280;2932;52.400;9.558;2023-02-18T12:18:22;100606.63;;;11.78;88.59
5812;BME280;2932;52.400;9.558;2023-02-18T12:24:11;100607.28;;;11.87;88.86
5812;BME280;2932;52.400;9.558;2023-02-18T12:30:07;100638.03;;;11.82;89.36
5812;BME280;2932;52.400;9.558;2023-02-18T12:32:57;100625.78;;;11.70;89.53
5812;BME280;2932;52.400;9.558;2023-02-18T12:41:12;100607.72;;;11.89;88.97
5812;BME280;2932;52.400;9.558;2023-02-18T12:52:30;100619.53;;;11.74;87.53
5812;BME280;2932;52.400;9.558;2023-02-18T12:57:48;100642.06;;;12.00;86.48
5812;BME280;2932;52.400;9.558;2023-02-18T13:13:48;100639.97;;;11.81;87.06
5812;BME280;2932;52.400;9.558;2023-02-18T13:16:16;100648.84;;;11.87;87.40
5812;BME280;2932;52.400;9.558;2023-02-18T13:19:26;100644.66;;;11.93;87.87
5812;BME280;2932;52.400;9.558;2023-02-18T13:21:58;100644.28;;;11.79;88.26
5812;BME280;2932;52.400;9.558;2023-02-18T13:29:34;100666.84;;;11.93;88.87
5812;BME280;2932;52.400;9.558;2023-02-18T13:40:51;100675.56;;;11.79;89.45
5812;BME280;2932;52.400;9.558;2023-02-18T13:48:28;100666.19;;;11.72;89.68
5812;BME280;2932;52.400;9.558;2023-02-18T13:51:01;100669.88;;;11.76;89.01
5812;BME280;2932;52.400;9.558;2023-02-18T13:53:30;100681.41;;;11.90;89.37
5812;BME280;2932;52.400;9.558;2023-02-18T13:56:00;100664.97;;;11.97;89.11
5812;BME280;2932;52.400;9.558;2023-02-18T14:01:05;100672.94;;;11.98;88.79
5812;BME280;2932;52.400;9.558;2023-02-18T14:03:35;100670.59;;;12.00;88.62
5812;BME280;2932;52.400;9.558;2023-02-18T14:06:01;100683.06;;;12.07;88.53
5812;BME280;2932;52.400;9.558;2023-02-18T14:08:38;100675.03;;;12.17;88.49
5812;BME280;2932;52.400;9.558;2023-02-18T14:13:55;100699.13;;;11.73;90.53
5812;BME280;2932;52.400;9.558;2023-02-18T14:19:37;100692.19;;;11.79;90.53
5812;BME280;2932;52.400;9.558;2023-02-18T14:23:07;100697.50;;;11.84;90.36
5812;BME280;2932;52.400;9.558;2023-02-18T14:27:32;100702.09;;;12.08;90.00
5812;BME280;2932;52.400;9.558;2023-02-18T14:30:07;100705.47;;;11.74;90.66
5812;BME280;2932;52.400;9.558;2023-02-18T14:32:40;100708.44;;;11.93;90.19
5812;BME280;2932;52.400;9.558;2023-02-18T14:38:05;100710.84;;;11.94;89.46
5812;BME280;2932;52.400;9.558;2023-02-18T14:40:51;100716.06;;;11.96;88.67
5812;BME280;2932;52.400;9.558;2023-02-18T14:46:12;100723.59;;;12.11;87.84
5812;BME280;2932;52.400;9.558;2023-02-18T14:49:01;100707.63;;;11.92;87.97
5812;BME280;2932;52.400;9.558;2023-02-18T14:51:33;100714.22;;;12.16;87.69
5812;BME280;2932;52.400;9.558;2023-02-18T14:54:07;100723.69;;;12.15;87.76
5812;BME280;2932;52.400;9.558;2023-02-18T14:56:40;100716.56;;;12.01;87.63
5812;BME280;2932;52.400;9.558;2023-02-18T14:59:11;100712.66;;;12.02;87.75
5812;BME280;2932;52.400;9.558;2023-02-18T15:01:37;100723.25;;;12.13;87.60
5812;BME280;2932;52.400;9.558;2023-02-18T15:04:04;100728.28;;;12.23;87.13
5812;BME280;2932;52.400;9.558;2023-02-18T15:06:35;100738.88;;;12.05;87.15
5812;BME280;2932;52.400;9.558;2023-02-18T15:09:13;100736.66;;;12.11;87.25
5812;BME280;2932;52.400;9.558;2023-02-18T15:11:42;100739.97;;;12.16;86.67
5812;BME280;2932;52.400;9.558;2023-02-18T15:14:21;100747.19;;;12.33;86.52
5812;BME280;2932;52.400;9.558;2023-02-18T15:16:48;100758.66;;;12.31;86.22
5812;BME280;2932;52.400;9.558;2023-02-18T15:19:16;100750.31;;;12.31;86.46
5812;BME280;2932;52.400;9.558;2023-02-18T15:21:46;100758.19;;;12.29;86.62
5812;BME280;2932;52.400;9.558;2023-02-18T15:24:32;100761.88;;;12.33;86.51
5812;BME280;2932;52.400;9.558;2023-02-18T15:27:01;100752.19;;;11.99;87.03
5812;BME280;2932;52.400;9.558;2023-02-18T15:29:30;100761.72;;;12.14;86.79
5812;BME280;2932;52.400;9.558;2023-02-18T15:31:56;100756.56;;;12.28;86.91